createdAt,value
2019-01-21T00:01:15.187Z,99952.29
2019-01-21T00:03:42.246Z,99950.23
2019-01-21T00:06:08.217Z,99943.25
2019-01-21T00:08:34.199Z,99948.53
2019-01-21T00:11:00.147Z,99950.22
2019-01-21T00:13:25.997Z,99950.22
2019-01-21T00:15:51.962Z,99950.30
2019-01-21T00:18:17.980Z,99951.02
2019-01-21T00:20:43.883Z,99953.13
2019-01-21T00:23:09.735Z,99947.59
2019-01-21T00:25:35.688Z,99952.31
2019-01-21T00:28:01.552Z,99953.53
2019-01-21T00:30:27.425Z,99955.28
2019-01-21T00:32:53.373Z,99960.47
2019-01-21T00:35:19.238Z,99958.73
2019-01-21T00:37:48.430Z,99958.67
2019-01-21T00:40:15.826Z,99952.64
2019-01-21T00:42:41.857Z,99960.41
2019-01-21T00:45:07.770Z,99959.52
2019-01-21T00:47:33.637Z,99967.70
2019-01-21T00:49:59.646Z,99961.97
2019-01-21T00:52:25.549Z,99963.67
2019-01-21T00:54:51.531Z,99960.56
2019-01-21T00:57:17.418Z,99966.11
2019-01-21T00:59:43.510Z,99966.11
2019-01-21T01:02:09.393Z,99960.55
2019-01-21T01:04:35.257Z,99967.45
2019-01-21T01:07:01.251Z,99956.59
2019-01-21T01:09:27.119Z,99955.77
2019-01-21T01:11:53.016Z,99967.88
2019-01-21T01:14:18.880Z,99960.68
2019-01-21T01:16:44.743Z,99962.05
2019-01-21T01:19:10.605Z,99962.95
2019-01-21T01:21:36.569Z,99959.52
2019-01-21T01:24:02.437Z,99959.80
2019-01-21T01:26:28.356Z,99967.66
2019-01-21T01:28:54.244Z,99970.28
2019-01-21T01:31:20.091Z,99971.67
2019-01-21T01:33:46.022Z,99977.33
2019-01-21T01:36:11.904Z,99974.70
2019-01-21T01:38:37.791Z,99977.27
2019-01-21T01:41:03.863Z,99977.22
2019-01-21T01:43:29.753Z,99974.09
2019-01-21T01:45:55.627Z,99985.00
2019-01-21T01:48:21.523Z,99981.51
2019-01-21T01:50:47.529Z,99979.34
2019-01-21T01:53:13.427Z,99985.39
2019-01-21T01:55:39.295Z,99984.98
2019-01-21T01:58:05.267Z,99977.66
2019-01-21T02:00:31.171Z,99978.89
2019-01-21T02:02:59.080Z,99980.05
2019-01-21T02:05:25.185Z,99976.09
2019-01-21T02:07:51.181Z,99970.22
2019-01-21T02:10:17.157Z,99977.06
2019-01-21T02:12:43.452Z,99970.56
2019-01-21T02:15:11.341Z,99969.41
2019-01-21T02:17:37.416Z,99965.92
2019-01-21T02:20:06.992Z,99961.49
2019-01-21T02:22:33.017Z,99964.92
2019-01-21T02:25:00.212Z,99969.73
2019-01-21T02:27:30.435Z,99970.23
2019-01-21T02:30:25.818Z,99966.70
2019-01-21T02:33:01.114Z,99976.97
2019-01-21T02:35:37.550Z,99971.37
2019-01-21T02:38:10.193Z,99967.52
2019-01-21T02:40:45.523Z,99968.36
2019-01-21T02:43:30.337Z,99963.07
2019-01-21T02:46:11.966Z,99967.81
2019-01-21T02:48:44.674Z,99963.45
2019-01-21T02:51:20.751Z,99967.28
2019-01-21T02:54:02.716Z,99968.05
2019-01-21T02:56:38.436Z,99957.70
2019-01-21T02:59:20.135Z,99958.23
2019-01-21T03:02:07.861Z,99955.99
2019-01-21T03:05:11.127Z,99956.50
2019-01-21T03:07:46.223Z,99959.95
2019-01-21T03:10:35.834Z,99951.64
2019-01-21T03:13:11.667Z,99950.80
2019-01-21T03:15:47.649Z,99953.68
2019-01-21T03:18:17.322Z,99950.27
2019-01-21T03:21:04.305Z,99949.91
2019-01-21T03:23:33.986Z,99950.80
2019-01-21T03:26:21.991Z,99950.28
2019-01-21T03:28:51.764Z,99946.84
2019-01-21T03:31:24.463Z,99946.41
2019-01-21T03:34:06.221Z,99940.32
2019-01-21T03:36:48.146Z,99943.38
2019-01-21T03:39:34.433Z,99940.27
2019-01-21T03:42:04.134Z,99938.41
2019-01-21T03:44:49.181Z,99938.39
2019-01-21T03:47:24.679Z,99936.27
2019-01-21T03:50:09.577Z,99936.98
2019-01-21T03:52:57.708Z,99942.19
2019-01-21T03:55:23.752Z,99942.13
2019-01-21T03:57:56.489Z,99936.73
2019-01-21T04:00:29.318Z,99936.30
2019-01-21T04:03:14.041Z,99935.81
2019-01-21T04:05:49.475Z,99933.19
2019-01-21T04:08:28.724Z,99929.62
2019-01-21T04:11:03.748Z,99928.78
2019-01-21T04:13:56.246Z,99930.02
2019-01-21T04:16:49.188Z,99921.31
2019-01-21T04:19:24.866Z,99925.70
2019-01-21T04:22:10.214Z,99924.81
2019-01-21T04:24:45.856Z,99918.86
2019-01-21T04:27:33.756Z,99928.66
2019-01-21T04:30:21.843Z,99925.98
2019-01-21T04:32:57.510Z,99922.70
2019-01-21T04:35:44.125Z,99931.80
2019-01-21T04:38:30.492Z,99930.88
2019-01-21T04:41:24.348Z,99932.61
2019-01-21T04:44:28.297Z,99931.33
2019-01-21T04:47:28.363Z,99930.89
2019-01-21T04:50:16.397Z,99933.13
2019-01-21T04:52:58.355Z,99938.69
2019-01-21T04:55:34.111Z,99935.30
2019-01-21T04:58:06.708Z,99939.08
2019-01-21T05:00:48.734Z,99937.70
2019-01-21T05:03:35.250Z,99946.03
2019-01-21T05:06:11.160Z,99940.86
2019-01-21T05:08:49.602Z,99936.22
2019-01-21T05:11:30.971Z,99943.19
2019-01-21T05:14:06.556Z,99943.86
2019-01-21T05:16:51.643Z,99951.97
2019-01-21T05:19:24.294Z,99943.69
2019-01-21T05:22:03.234Z,99945.33
2019-01-21T05:24:38.994Z,99947.41
2019-01-21T05:27:25.556Z,99950.91
2019-01-21T05:30:13.141Z,99953.50
2019-01-21T05:33:02.278Z,99956.23
2019-01-21T05:35:40.529Z,99957.38
2019-01-21T05:38:16.482Z,99959.49
2019-01-21T05:40:55.260Z,99960.80
2019-01-21T05:43:44.472Z,99962.09
2019-01-21T05:46:19.675Z,99969.84
2019-01-21T05:48:58.417Z,99966.91
2019-01-21T05:51:42.985Z,99966.48
2019-01-21T05:54:12.735Z,99967.69
2019-01-21T05:56:51.469Z,99971.14
2019-01-21T05:59:23.904Z,99976.82
2019-01-21T06:01:56.606Z,99972.05
2019-01-21T06:04:38.055Z,99971.57
2019-01-21T06:07:10.732Z,99970.63
2019-01-21T06:09:46.237Z,99978.02
2019-01-21T06:12:21.288Z,99975.80
2019-01-21T06:15:06.065Z,99976.80
2019-01-21T06:17:41.435Z,99975.93
2019-01-21T06:20:29.835Z,99974.55
2019-01-21T06:23:15.076Z,99982.38
2019-01-21T06:26:00.241Z,99974.55
2019-01-21T06:28:41.073Z,99976.34
2019-01-21T06:31:46.562Z,99982.45
2019-01-21T06:34:36.989Z,99980.20
2019-01-21T06:37:24.859Z,99977.91
2019-01-21T06:40:19.198Z,99978.69
2019-01-21T06:43:10.097Z,99977.69
2019-01-21T06:46:13.254Z,99979.95
2019-01-21T06:49:04.755Z,99981.64
2019-01-21T06:51:41.524Z,99985.66
2019-01-21T06:54:14.114Z,99985.23
2019-01-21T06:56:52.831Z,99982.44
2019-01-21T06:59:34.630Z,99987.80
2019-01-21T07:02:04.388Z,99995.56
2019-01-21T07:04:34.211Z,99996.36
2019-01-21T07:07:23.897Z,99995.44
2019-01-21T07:09:56.404Z,99992.58
2019-01-21T07:12:41.212Z,99994.16
2019-01-21T07:15:27.495Z,99999.72
2019-01-21T07:18:06.001Z,100005.41
2019-01-21T07:20:44.575Z,100004.03
2019-01-21T07:23:17.357Z,100006.25
2019-01-21T07:26:05.262Z,100002.65
2019-01-21T07:28:38.167Z,100011.55
2019-01-21T07:31:17.078Z,100006.77
2019-01-21T07:33:59.023Z,100008.55
2019-01-21T07:36:49.391Z,100006.37
2019-01-21T07:39:25.021Z,100009.28
2019-01-21T07:42:09.944Z,100008.09
2019-01-21T07:44:54.492Z,100012.11
2019-01-21T07:47:40.115Z,100016.66
2019-01-21T07:50:09.941Z,100011.80
2019-01-21T07:52:45.243Z,100013.65
2019-01-21T07:55:32.534Z,100011.44
2019-01-21T07:58:11.048Z,100013.81
2019-01-21T08:00:46.576Z,100011.11
2019-01-21T08:03:40.946Z,100000.31
2019-01-21T08:06:19.684Z,100007.71
2019-01-21T08:08:52.153Z,99999.86
2019-01-21T08:11:24.910Z,100000.84
2019-01-21T08:14:00.545Z,100000.42
2019-01-21T08:16:42.374Z,100001.46
2019-01-21T08:19:14.836Z,100000.77
2019-01-21T08:22:17.703Z,100004.84
2019-01-21T08:25:19.474Z,100003.99
2019-01-21T08:27:55.610Z,100004.19
2019-01-21T08:30:42.097Z,100006.86
2019-01-21T08:33:14.802Z,100013.91
2019-01-21T08:35:50.658Z,100015.75
2019-01-21T08:38:23.504Z,100007.08
2019-01-21T08:40:56.160Z,100018.45
2019-01-21T08:43:40.438Z,100012.75
2019-01-21T08:46:31.146Z,100014.53
2019-01-21T08:49:00.954Z,100018.09
2019-01-21T08:51:42.915Z,100015.62
2019-01-21T08:54:15.597Z,100018.28
2019-01-21T08:56:57.313Z,100020.52
2019-01-21T08:59:30.015Z,100031.46
2019-01-21T09:02:12.064Z,100028.47
2019-01-21T09:04:57.110Z,100030.67
2019-01-21T09:07:41.877Z,100028.97
2019-01-21T09:10:40.927Z,100029.44
2019-01-21T09:13:22.425Z,100034.28
2019-01-21T09:16:03.560Z,100033.83
2019-01-21T09:18:39.122Z,100028.20
2019-01-21T09:21:11.322Z,100028.20
2019-01-21T09:23:44.701Z,100033.87
2019-01-21T09:26:34.059Z,100029.97
2019-01-21T09:29:06.815Z,100033.45
2019-01-21T09:31:57.679Z,100029.94
2019-01-21T09:34:27.439Z,100045.22
2019-01-21T09:37:17.171Z,100047.82
2019-01-21T09:39:49.846Z,100047.82
2019-01-21T09:42:28.740Z,100049.12
2019-01-21T09:45:13.191Z,100047.37
2019-01-21T09:47:38.944Z,100047.37
2019-01-21T09:50:05.041Z,100045.22
2019-01-21T09:52:30.926Z,100036.50
2019-01-21T09:54:56.811Z,100036.50
2019-01-21T09:57:23.201Z,100049.56
2019-01-21T09:59:50.020Z,100043.02
2019-01-21T10:02:16.705Z,100043.02
2019-01-21T10:04:43.808Z,100044.32
2019-01-21T10:07:16.072Z,100041.25
2019-01-21T10:09:57.800Z,100041.68
2019-01-21T10:12:44.348Z,100045.59
2019-01-21T10:15:30.121Z,100041.20
2019-01-21T10:18:21.168Z,100044.19
2019-01-21T10:21:18.323Z,100034.13
2019-01-21T10:23:51.053Z,100035.72
2019-01-21T10:26:32.915Z,100020.36
2019-01-21T10:29:08.951Z,100023.77
2019-01-21T10:31:50.313Z,100017.67
2019-01-21T10:34:50.159Z,100017.96
2019-01-21T10:37:47.475Z,100020.98
2019-01-21T10:40:20.092Z,100011.89
2019-01-21T10:43:12.151Z,100017.35
2019-01-21T10:46:03.131Z,100013.03
2019-01-21T10:49:00.204Z,100011.95
2019-01-21T10:51:54.385Z,100012.89
2019-01-21T10:54:32.918Z,100006.24
2019-01-21T10:57:08.428Z,99998.75
2019-01-21T10:59:50.416Z,99997.52
2019-01-21T11:02:36.753Z,99993.96
2019-01-21T11:05:09.252Z,99996.28
2019-01-21T11:07:51.096Z,99993.34
2019-01-21T11:10:25.838Z,99993.17
2019-01-21T11:12:58.625Z,99988.52
2019-01-21T11:15:28.309Z,99991.00
2019-01-21T11:18:04.335Z,99983.42
2019-01-21T11:20:42.499Z,99985.11
2019-01-21T11:23:33.892Z,99978.80
2019-01-21T11:26:22.927Z,99971.64
2019-01-21T11:28:52.714Z,99974.50
2019-01-21T11:31:30.961Z,99973.42
2019-01-21T11:34:09.455Z,99973.22
2019-01-21T11:36:58.683Z,99966.48
2019-01-21T11:39:28.401Z,99967.68
2019-01-21T11:42:16.433Z,99969.06
2019-01-21T11:44:55.190Z,99968.42
2019-01-21T11:47:49.264Z,99958.32
2019-01-21T11:50:19.017Z,99952.83
2019-01-21T11:52:57.451Z,99954.70
2019-01-21T11:55:33.076Z,99950.06
2019-01-21T11:58:12.381Z,99949.17
2019-01-21T12:00:50.815Z,99945.14
2019-01-21T12:03:23.681Z,99945.02
2019-01-21T12:05:50.957Z,99941.20
2019-01-21T12:08:23.394Z,99940.23
2019-01-21T12:10:56.068Z,99938.92
2019-01-21T12:13:47.348Z,99931.84
2019-01-21T12:16:20.089Z,99928.91
2019-01-21T12:18:59.058Z,99925.52
2019-01-21T12:21:31.478Z,99922.02
2019-01-21T12:24:01.147Z,99927.24
2019-01-21T12:26:39.878Z,99922.97
2019-01-21T12:29:12.602Z,99916.09
2019-01-21T12:31:54.385Z,99918.56
2019-01-21T12:34:33.004Z,99919.68
2019-01-21T12:37:02.664Z,99917.43
2019-01-21T12:39:41.680Z,99914.84
2019-01-21T12:42:11.372Z,99908.51
2019-01-21T12:44:55.687Z,99905.44
2019-01-21T12:47:31.235Z,99903.94
2019-01-21T12:50:24.099Z,99901.31
2019-01-21T12:52:53.450Z,99898.30
2019-01-21T12:55:29.162Z,99895.95
2019-01-21T12:58:08.144Z,99896.81
2019-01-21T13:00:44.180Z,99894.17
2019-01-21T13:03:23.259Z,99885.10
2019-01-21T13:06:09.903Z,99887.91
2019-01-21T13:08:45.897Z,99913.74
2019-01-21T13:11:18.741Z,99896.35
2019-01-21T13:13:54.716Z,99879.08
2019-01-21T13:16:27.408Z,99873.17
2019-01-21T13:19:30.631Z,99865.67
2019-01-21T13:22:14.907Z,99867.02
2019-01-21T13:24:55.677Z,99859.27
2019-01-21T13:27:51.372Z,99863.66
2019-01-21T13:30:29.888Z,99859.14
2019-01-21T13:33:15.658Z,99865.36
2019-01-21T13:36:00.630Z,99853.45
2019-01-21T13:38:42.029Z,99852.16
2019-01-21T13:41:11.720Z,99856.48
2019-01-21T13:43:52.938Z,99848.64
2019-01-21T13:46:44.341Z,99854.89
2019-01-21T13:49:14.045Z,99845.24
2019-01-21T13:51:49.607Z,99847.57
2019-01-21T13:54:28.206Z,99838.61
2019-01-21T13:57:01.259Z,99841.08
2019-01-21T13:59:53.866Z,99839.75
2019-01-21T14:02:26.321Z,99836.97
2019-01-21T14:05:07.859Z,99832.39
2019-01-21T14:07:57.430Z,99831.70
2019-01-21T14:10:32.947Z,99837.16
2019-01-21T14:13:05.795Z,99833.62
2019-01-21T14:15:38.436Z,99836.79
2019-01-21T14:18:25.962Z,99836.41
2019-01-21T14:21:01.725Z,99834.84
2019-01-21T14:23:52.870Z,99833.86
2019-01-21T14:26:39.365Z,99836.79
2019-01-21T14:29:15.363Z,99829.56
2019-01-21T14:31:50.795Z,99828.48
2019-01-21T14:34:26.024Z,99828.44
2019-01-21T14:37:29.111Z,99821.05
2019-01-21T14:40:14.339Z,99827.78
2019-01-21T14:42:55.885Z,99833.09
2019-01-21T14:45:34.541Z,99829.38
2019-01-21T14:48:30.443Z,99825.01
2019-01-21T14:51:19.596Z,99827.25
2019-01-21T14:53:52.060Z,99832.45
2019-01-21T14:56:24.842Z,99826.97
2019-01-21T14:59:11.105Z,99824.31
2019-01-21T15:01:46.804Z,99822.09
2019-01-21T15:04:34.641Z,99824.86
2019-01-21T15:07:07.479Z,99822.91
2019-01-21T15:09:39.999Z,99814.17
2019-01-21T15:12:21.824Z,99815.55
2019-01-21T15:15:24.941Z,99809.08
2019-01-21T15:18:14.597Z,99808.83
2019-01-21T15:20:47.351Z,99806.86
2019-01-21T15:23:41.633Z,99813.16
2019-01-21T15:26:11.317Z,99807.93
2019-01-21T15:29:15.918Z,99813.62
2019-01-21T15:31:51.650Z,99802.31
2019-01-21T15:34:33.650Z,99815.44
2019-01-21T15:37:24.707Z,99799.42
2019-01-21T15:39:57.559Z,99809.12
2019-01-21T15:42:33.300Z,99809.12
2019-01-21T15:45:25.644Z,99815.70
2019-01-21T15:47:56.796Z,99844.16
2019-01-21T15:50:54.117Z,99813.72
2019-01-21T15:53:42.180Z,99818.17
2019-01-21T15:56:30.266Z,99823.42
2019-01-21T15:59:02.945Z,99827.80
2019-01-21T16:01:32.617Z,99824.35
2019-01-21T16:04:08.186Z,99822.72
2019-01-21T16:06:37.891Z,99826.24
2019-01-21T16:09:07.566Z,99824.55
2019-01-21T16:11:37.273Z,99815.96
2019-01-21T16:14:03.257Z,99815.96
2019-01-21T16:16:35.868Z,99821.23
2019-01-21T16:19:08.626Z,99842.20
2019-01-21T16:21:53.861Z,99823.92
2019-01-21T16:24:23.583Z,99829.19
2019-01-21T16:26:55.974Z,99823.97
2019-01-21T16:29:25.632Z,99818.73
2019-01-21T16:31:53.738Z,99826.17
2019-01-21T16:34:38.346Z,99822.30
2019-01-21T16:37:20.153Z,99817.10
2019-01-21T16:40:08.016Z,99817.10
2019-01-21T16:42:34.505Z,99815.87
2019-01-21T16:45:00.400Z,99815.87
2019-01-21T16:47:26.653Z,99817.66
2019-01-21T16:49:52.612Z,99825.44
2019-01-21T16:52:18.507Z,99823.30
2019-01-21T16:54:44.368Z,99827.70
2019-01-21T16:57:13.781Z,99826.34
2019-01-21T16:59:39.729Z,99829.36
2019-01-21T17:02:05.601Z,99829.36
2019-01-21T17:04:32.812Z,99825.37
2019-01-21T17:06:58.897Z,99830.26
2019-01-21T17:09:24.795Z,99830.26
2019-01-21T17:11:50.685Z,99828.53
2019-01-21T17:14:16.557Z,99831.16
2019-01-21T17:16:42.574Z,99834.66
2019-01-21T17:19:08.478Z,99839.97
2019-01-21T17:24:01.264Z,99833.86
2019-01-21T17:26:27.191Z,99841.28
2019-01-21T17:28:54.116Z,99839.95
2019-01-21T17:31:20.054Z,99853.05
2019-01-21T17:33:45.979Z,99853.05
2019-01-21T17:36:11.922Z,99848.27
2019-01-21T17:38:37.810Z,99846.95
2019-01-21T17:41:03.747Z,99845.66
2019-01-21T17:43:29.736Z,99849.14
2019-01-21T17:45:55.615Z,99841.73
2019-01-21T17:48:21.496Z,99841.73
2019-01-21T17:50:47.402Z,99847.86
2019-01-21T17:53:13.279Z,99852.19
2019-01-21T17:55:39.156Z,99851.34
2019-01-21T17:58:05.081Z,99852.65
2019-01-21T18:00:30.961Z,99853.94
2019-01-21T18:02:57.006Z,99847.84
2019-01-21T18:05:22.862Z,99853.08
2019-01-21T18:07:48.749Z,99849.59
2019-01-21T18:10:16.703Z,99850.05
2019-01-21T18:12:42.688Z,99836.09
2019-01-21T18:15:10.271Z,99836.09
2019-01-21T18:17:36.223Z,99847.84
2019-01-21T18:20:08.796Z,99846.55
2019-01-21T18:22:34.651Z,99841.34
2019-01-21T18:25:00.575Z,99839.58
2019-01-21T18:27:26.520Z,99844.37
2019-01-21T18:29:52.411Z,99842.63
2019-01-21T18:32:18.278Z,99846.53
2019-01-21T18:34:44.168Z,99840.03
2019-01-21T18:37:10.117Z,99841.31
2019-01-21T18:39:35.994Z,99842.17
2019-01-21T18:42:02.126Z,99838.69
2019-01-21T18:44:28.046Z,99843.04
2019-01-21T18:46:54.158Z,99840.43
2019-01-21T18:49:22.908Z,99842.19
2019-01-21T18:51:47.905Z,99846.55
2019-01-21T18:54:13.877Z,99847.83
2019-01-21T18:56:43.787Z,99846.08
2019-01-21T18:59:09.748Z,99852.59
2019-01-21T19:01:35.652Z,99841.30
2019-01-21T19:04:01.526Z,99840.87
2019-01-21T19:06:27.445Z,99846.06
2019-01-21T19:08:53.328Z,99841.28
2019-01-21T19:11:19.194Z,99834.31
2019-01-21T19:13:45.107Z,99833.00
2019-01-21T19:16:10.969Z,99836.93
2019-01-21T19:18:36.942Z,99833.42
2019-01-21T19:21:02.792Z,99829.96
2019-01-21T19:23:28.689Z,99829.09
2019-01-21T19:25:54.575Z,99821.22
2019-01-21T19:28:20.621Z,99821.66
2019-01-21T19:30:46.604Z,99822.95
2019-01-21T19:33:12.907Z,99823.39
2019-01-21T19:35:38.781Z,99823.39
2019-01-21T19:38:04.689Z,99821.18
2019-01-21T19:40:32.142Z,99831.18
2019-01-21T19:42:58.095Z,99840.30
2019-01-21T19:45:24.089Z,99830.72
2019-01-21T19:47:50.036Z,99827.23
2019-01-21T19:50:20.649Z,99823.80
2019-01-21T19:52:46.504Z,99820.31
2019-01-21T19:55:21.530Z,99828.97
2019-01-21T19:57:47.618Z,99832.87
2019-01-21T20:00:17.311Z,99829.83
2019-01-21T20:02:44.527Z,99832.41
2019-01-21T20:05:10.865Z,99828.52
2019-01-21T20:07:36.749Z,99826.74
2019-01-21T20:10:06.395Z,99824.11
2019-01-21T20:12:32.291Z,99828.06
2019-01-21T20:14:58.991Z,99826.27
2019-01-21T20:17:24.849Z,99822.33
2019-01-21T20:19:50.724Z,99822.77
2019-01-21T20:22:16.607Z,99824.95
2019-01-21T20:24:42.578Z,99820.59
2019-01-21T20:27:08.524Z,99828.83
2019-01-21T20:29:34.417Z,99818.80
2019-01-21T20:32:00.285Z,99817.94
2019-01-21T20:34:26.534Z,99824.48
2019-01-21T20:36:52.441Z,99820.53
2019-01-21T20:39:18.357Z,99813.61
2019-01-21T20:41:44.190Z,99822.80
2019-01-21T20:44:10.087Z,99814.13
2019-01-21T20:46:36.003Z,99814.98
2019-01-21T20:49:01.870Z,99811.43
2019-01-21T20:51:27.753Z,99814.05
2019-01-21T20:53:53.660Z,99811.36
2019-01-21T20:56:19.694Z,99817.00
2019-01-21T20:58:45.604Z,99821.30
2019-01-21T21:01:11.599Z,99824.41
2019-01-21T21:03:37.458Z,99825.20
2019-01-21T21:06:03.353Z,99830.48
2019-01-21T21:08:29.348Z,99818.75
2019-01-21T21:10:55.222Z,99821.34
2019-01-21T21:13:21.251Z,99818.28
2019-01-21T21:15:47.286Z,99823.89
2019-01-21T21:18:13.293Z,99817.41
2019-01-21T21:20:39.162Z,99810.02
2019-01-21T21:23:05.029Z,99814.34
2019-01-21T21:25:30.962Z,99814.77
2019-01-21T21:27:56.846Z,99814.73
2019-01-21T21:30:25.151Z,99813.47
2019-01-21T21:32:51.031Z,99813.47
2019-01-21T21:35:17.376Z,99815.11
2019-01-21T21:37:43.256Z,99815.50
2019-01-21T21:40:12.022Z,99819.86
2019-01-21T21:42:37.940Z,99813.30
2019-01-21T21:45:07.306Z,99811.53
2019-01-21T21:47:33.206Z,99813.16
2019-01-21T21:49:59.102Z,99817.51
2019-01-21T21:52:27.856Z,99816.22
2019-01-21T21:54:53.238Z,99820.53
2019-01-21T21:57:19.111Z,99819.73
2019-01-21T21:59:45.020Z,99814.55
2019-01-21T22:02:10.924Z,99810.55
2019-01-21T22:04:36.797Z,99811.91
2019-01-21T22:07:02.681Z,99812.34
2019-01-21T22:09:28.565Z,99811.58
2019-01-21T22:11:54.496Z,99810.33
2019-01-21T22:14:20.500Z,99812.42
2019-01-21T22:16:46.369Z,99809.87
2019-01-21T22:19:12.247Z,99806.78
2019-01-21T22:21:38.136Z,99810.73
2019-01-21T22:24:04.022Z,99810.73
2019-01-21T22:26:29.867Z,99808.48
2019-01-21T22:28:55.862Z,99805.90
2019-01-21T22:31:21.745Z,99805.52
2019-01-21T22:33:47.628Z,99808.94
2019-01-21T22:36:13.539Z,99805.90
2019-01-21T22:38:39.562Z,99805.88
2019-01-21T22:41:06.017Z,99803.66
2019-01-21T22:43:31.946Z,99802.86
2019-01-21T22:45:57.838Z,99801.97
2019-01-21T22:48:23.756Z,99796.33
2019-01-21T22:50:49.623Z,99796.70
2019-01-21T22:53:15.542Z,99794.55
2019-01-21T22:55:41.394Z,99794.64
2019-01-21T22:58:07.693Z,99788.97
2019-01-21T23:00:45.939Z,99785.86
2019-01-21T23:03:12.139Z,99782.48
2019-01-21T23:05:38.133Z,99786.37
2019-01-21T23:08:03.982Z,99782.91
2019-01-21T23:10:29.884Z,99782.00
2019-01-21T23:12:55.779Z,99780.31
2019-01-21T23:15:21.657Z,99786.34
2019-01-21T23:17:47.551Z,99782.88
2019-01-21T23:20:13.458Z,99777.63
2019-01-21T23:22:39.314Z,99785.44
2019-01-21T23:25:05.787Z,99786.16
2019-01-21T23:27:31.752Z,99785.18
2019-01-21T23:29:57.630Z,99784.33
2019-01-21T23:32:23.478Z,99777.91
2019-01-21T23:34:49.347Z,99776.20
2019-01-21T23:37:15.230Z,99780.39
2019-01-21T23:39:41.105Z,99775.61
2019-01-21T23:42:06.996Z,99779.98
2019-01-21T23:44:32.889Z,99771.71
2019-01-21T23:46:59.103Z,99769.62
2019-01-21T23:49:24.976Z,99774.37
2019-01-21T23:51:50.917Z,99773.91
2019-01-21T23:54:16.793Z,99774.80
2019-01-21T23:56:42.653Z,99767.41
2019-01-21T23:59:08.536Z,99753.62
